createdAt,value
2018-03-27T00:08:17.591Z,80.13
2018-03-27T00:10:47.958Z,81.67
2018-03-27T00:16:38.918Z,76.50
2018-03-27T00:19:09.053Z,78.33
2018-03-27T00:24:45.672Z,79.60
2018-03-27T00:27:14.012Z,77.20
2018-03-27T00:33:08.492Z,77.00
2018-03-27T00:35:57.180Z,73.17
2018-03-27T00:47:47.489Z,78.87
2018-03-27T00:50:17.910Z,72.90
2018-03-27T01:02:21.877Z,80.17
2018-03-27T01:07:49.368Z,77.80
2018-03-27T01:13:29.633Z,89.30
2018-03-27T01:19:09.579Z,81.27
2018-03-27T01:21:39.412Z,78.77
2018-03-27T01:33:31.553Z,87.27
2018-03-27T01:36:01.662Z,90.93
2018-03-27T01:38:48.858Z,77.90
2018-03-27T01:41:18.952Z,75.43
2018-03-27T01:47:09.043Z,65.47
2018-03-27T01:49:53.885Z,67.60
2018-03-27T02:02:09.537Z,62.83
2018-03-27T02:04:39.460Z,73.30
2018-03-27T02:07:10.161Z,61.93
2018-03-27T02:09:58.649Z,57.27
2018-03-27T02:27:36.041Z,72.83
2018-03-27T02:30:06.277Z,69.47
2018-03-27T02:32:36.378Z,67.10
2018-03-27T02:38:45.023Z,71.13
2018-03-27T02:41:15.391Z,70.60
2018-03-27T02:46:58.883Z,82.90
2018-03-27T02:49:29.187Z,82.27
2018-03-27T02:52:12.834Z,86.97
2018-03-27T02:57:55.954Z,89.47
2018-03-27T03:00:44.812Z,89.73
2018-03-27T03:03:42.719Z,88.60
2018-03-27T03:06:38.570Z,86.33
2018-03-27T03:09:08.735Z,92.27
2018-03-27T03:14:51.883Z,92.80
2018-03-27T03:17:22.341Z,88.80
2018-03-27T03:20:08.794Z,92.03
2018-03-27T03:22:55.260Z,92.93
2018-03-27T03:25:25.839Z,81.73
2018-03-27T03:28:25.005Z,92.90
2018-03-27T03:34:40.203Z,85.70
2018-03-27T03:40:12.222Z,84.57
2018-03-27T03:42:43.133Z,78.90
2018-03-27T03:45:13.231Z,82.40
2018-03-27T03:54:17.621Z,66.47
2018-03-27T03:56:48.002Z,67.13
2018-03-27T03:59:18.402Z,70.00
2018-03-27T04:01:48.490Z,62.00
2018-03-27T04:04:18.590Z,58.23
2018-03-27T04:06:48.692Z,60.20
2018-03-27T04:21:51.423Z,52.60
2018-03-27T04:30:35.976Z,52.23
2018-03-27T04:33:06.379Z,49.37
2018-03-27T04:35:36.472Z,46.90
2018-03-27T04:38:31.924Z,46.80
2018-03-27T04:41:01.779Z,46.23
2018-03-27T04:46:42.681Z,43.67
2018-03-27T04:49:13.130Z,45.70
2018-03-27T04:51:43.417Z,44.50
2018-03-27T04:54:13.583Z,45.97
2018-03-27T05:02:58.757Z,45.10
2018-03-27T05:05:45.954Z,44.97
2018-03-27T05:11:24.490Z,41.47
2018-03-27T05:16:55.328Z,40.17
2018-03-27T05:19:44.375Z,40.87
2018-03-27T05:22:14.523Z,39.90
2018-03-27T05:25:01.072Z,40.27
2018-03-27T05:27:32.157Z,36.80
2018-03-27T05:30:21.182Z,33.27
2018-03-27T05:33:14.224Z,37.63
2018-03-27T05:35:56.375Z,35.43
2018-03-27T05:38:48.185Z,33.43
2018-03-27T05:41:18.149Z,34.60
2018-03-27T05:47:20.873Z,27.10
2018-03-27T05:52:51.615Z,34.57
2018-03-27T05:55:25.745Z,33.80
2018-03-27T05:57:56.427Z,35.53
2018-03-27T06:00:34.818Z,33.93
2018-03-27T06:03:05.414Z,31.87
2018-03-27T06:15:12.019Z,27.80
2018-03-27T06:17:42.149Z,29.13
2018-03-27T06:24:52.452Z,26.33
2018-03-27T06:27:22.621Z,29.73
2018-03-27T06:29:53.562Z,24.97
2018-03-27T06:32:24.492Z,26.57
2018-03-27T06:34:56.245Z,26.63
2018-03-27T06:40:37.961Z,22.87
2018-03-27T06:49:24.051Z,19.13
2018-03-27T06:55:04.110Z,17.97
2018-03-27T06:57:35.569Z,19.47
2018-03-27T07:09:10.290Z,19.07
2018-03-27T07:14:54.649Z,18.10
2018-03-27T07:17:24.948Z,17.93
2018-03-27T07:20:21.392Z,16.67
2018-03-27T07:22:51.742Z,14.87
2018-03-27T07:25:22.186Z,16.00
2018-03-27T07:27:53.833Z,14.43
2018-03-27T07:30:23.983Z,13.90
2018-03-27T07:33:01.866Z,14.60
2018-03-27T07:35:36.985Z,14.50
2018-03-27T07:38:07.368Z,14.57
2018-03-27T07:47:18.745Z,12.17
2018-03-27T07:49:54.678Z,11.63
2018-03-27T07:52:26.569Z,12.33
2018-03-27T07:55:20.876Z,11.13
2018-03-27T07:57:57.476Z,10.93
2018-03-27T08:06:39.718Z,11.07
2018-03-27T08:12:53.675Z,11.30
2018-03-27T08:15:31.359Z,10.93
2018-03-27T08:21:24.141Z,10.80
2018-03-27T08:30:09.255Z,10.10
2018-03-27T08:32:41.967Z,10.10
2018-03-27T08:35:14.044Z,11.47
2018-03-27T08:37:46.691Z,11.27
2018-03-27T08:43:28.741Z,11.23
2018-03-27T09:03:20.359Z,11.60
2018-03-27T09:05:57.542Z,11.97
2018-03-27T09:08:29.246Z,12.33
2018-03-27T09:11:05.026Z,11.60
2018-03-27T09:13:36.275Z,10.50
2018-03-27T09:16:10.484Z,11.17
2018-03-27T09:18:41.648Z,11.20
2018-03-27T09:21:16.573Z,11.23
2018-03-27T09:26:56.278Z,9.93
2018-03-27T09:35:40.058Z,10.50
2018-03-27T09:41:16.850Z,10.50
2018-03-27T09:43:47.148Z,9.37
2018-03-27T09:46:18.001Z,9.07
2018-03-27T09:48:48.069Z,9.43
2018-03-27T09:51:18.147Z,8.93
2018-03-27T09:53:49.174Z,9.83
2018-03-27T09:56:19.365Z,9.57
2018-03-27T09:58:49.495Z,9.73
2018-03-27T10:01:25.144Z,9.63
2018-03-27T10:03:55.272Z,10.03
2018-03-27T10:06:26.411Z,9.10
2018-03-27T10:08:56.532Z,9.43
2018-03-27T10:11:26.765Z,10.20
2018-03-27T10:13:57.072Z,9.40
2018-03-27T10:16:27.922Z,10.10
2018-03-27T10:18:58.807Z,9.87
2018-03-27T10:21:29.665Z,9.83
2018-03-27T10:24:00.017Z,9.20
2018-03-27T10:26:30.381Z,8.70
2018-03-27T10:29:00.468Z,9.63
2018-03-27T10:31:30.777Z,8.83
2018-03-27T10:34:00.888Z,9.17
2018-03-27T10:36:31.051Z,9.50
2018-03-27T10:39:01.887Z,9.13
2018-03-27T10:41:32.834Z,9.53
2018-03-27T10:44:03.180Z,8.80
2018-03-27T10:46:33.455Z,9.00
2018-03-27T10:49:03.553Z,9.07
2018-03-27T10:51:34.463Z,9.67
2018-03-27T10:54:05.223Z,9.57
2018-03-27T10:56:35.317Z,9.93
2018-03-27T10:59:06.064Z,9.23
2018-03-27T11:01:37.077Z,9.40
2018-03-27T11:04:09.813Z,8.93
2018-03-27T11:06:40.479Z,9.03
2018-03-27T11:09:10.716Z,8.23
2018-03-27T11:11:42.154Z,9.10
2018-03-27T11:14:12.966Z,9.43
2018-03-27T11:16:46.998Z,9.03
2018-03-27T11:19:21.981Z,8.53
2018-03-27T11:21:53.548Z,9.37
2018-03-27T11:24:25.924Z,9.23
2018-03-27T11:26:57.841Z,7.60
2018-03-27T11:29:28.117Z,8.70
2018-03-27T11:32:01.411Z,9.10
2018-03-27T11:34:34.685Z,7.23
2018-03-27T11:37:05.524Z,10.63
2018-03-27T11:39:36.085Z,8.83
2018-03-27T11:42:06.159Z,8.57
2018-03-27T11:44:36.728Z,9.23
2018-03-27T11:47:06.911Z,9.07
2018-03-27T11:49:37.006Z,8.50
2018-03-27T11:52:08.051Z,8.50
2018-03-27T11:54:38.085Z,8.47
2018-03-27T11:57:08.447Z,9.10
2018-03-27T11:59:38.626Z,8.73
2018-03-27T12:02:09.193Z,9.00
2018-03-27T12:04:39.808Z,8.13
2018-03-27T12:07:09.901Z,9.00
2018-03-27T12:09:40.016Z,9.73
2018-03-27T12:12:11.236Z,9.63
2018-03-27T12:14:41.558Z,8.83
2018-03-27T12:17:12.646Z,9.27
2018-03-27T12:19:42.907Z,8.90
2018-03-27T12:22:13.191Z,9.30
2018-03-27T12:24:44.968Z,9.57
2018-03-27T12:27:15.473Z,7.80
2018-03-27T12:29:45.563Z,8.23
2018-03-27T12:32:15.829Z,7.67
2018-03-27T12:34:47.535Z,8.33
2018-03-27T12:37:17.821Z,9.13
2018-03-27T12:39:48.148Z,8.30
2018-03-27T12:42:18.316Z,8.87
2018-03-27T12:44:48.857Z,9.33
2018-03-27T12:47:19.271Z,8.77
2018-03-27T12:49:49.605Z,8.13
2018-03-27T12:52:19.717Z,8.37
2018-03-27T12:54:49.862Z,7.20
2018-03-27T12:57:23.015Z,7.50
2018-03-27T12:59:53.194Z,8.43
2018-03-27T13:02:23.372Z,8.17
2018-03-27T13:04:53.892Z,7.83
2018-03-27T13:07:24.045Z,7.53
2018-03-27T13:09:54.105Z,6.10
2018-03-27T13:12:24.219Z,6.90
2018-03-27T13:14:54.329Z,6.70
2018-03-27T13:17:24.905Z,7.43
2018-03-27T13:19:55.061Z,7.17
2018-03-27T13:22:25.012Z,7.20
2018-03-27T13:24:55.098Z,7.30
2018-03-27T13:27:25.822Z,6.23
2018-03-27T13:29:57.311Z,6.93
2018-03-27T13:32:27.228Z,6.73
2018-03-27T13:34:57.521Z,7.17
2018-03-27T13:37:28.478Z,7.87
2018-03-27T13:39:58.587Z,7.40
2018-03-27T13:42:28.717Z,7.90
2018-03-27T13:44:58.909Z,8.80
2018-03-27T13:47:29.273Z,7.67
2018-03-27T13:50:00.140Z,8.33
2018-03-27T13:52:31.287Z,8.57
2018-03-27T13:55:01.576Z,7.93
2018-03-27T13:57:32.697Z,7.80
2018-03-27T14:00:02.481Z,7.10
2018-03-27T14:02:32.810Z,8.03
2018-03-27T14:05:03.127Z,7.57
2018-03-27T14:07:33.438Z,7.10
2018-03-27T14:10:03.514Z,7.90
2018-03-27T14:12:33.476Z,7.67
2018-03-27T14:15:03.437Z,7.10
2018-03-27T14:17:33.749Z,7.50
2018-03-27T14:20:03.534Z,8.63
2018-03-27T14:22:33.630Z,8.23
2018-03-27T14:25:03.557Z,8.83
2018-03-27T14:27:36.815Z,6.00
2018-03-27T14:30:09.407Z,9.13
2018-03-27T14:32:38.929Z,8.00
2018-03-27T14:35:09.156Z,7.43
2018-03-27T14:37:39.823Z,7.30
2018-03-27T14:40:11.097Z,7.93
2018-03-27T14:42:41.424Z,7.83
2018-03-27T14:45:13.674Z,7.57
2018-03-27T14:47:43.928Z,6.83
2018-03-27T14:50:15.451Z,7.33
2018-03-27T14:52:46.264Z,7.60
2018-03-27T14:55:16.877Z,7.97
2018-03-27T14:57:48.140Z,7.57
2018-03-27T15:00:18.263Z,8.20
2018-03-27T15:02:49.260Z,7.80
2018-03-27T15:05:19.578Z,7.77
2018-03-27T15:07:49.711Z,7.80
2018-03-27T15:10:19.892Z,7.43
2018-03-27T15:12:50.088Z,7.93
2018-03-27T15:15:20.488Z,7.30
2018-03-27T15:17:50.581Z,8.03
2018-03-27T15:20:21.218Z,6.33
2018-03-27T15:22:51.486Z,7.23
2018-03-27T15:25:21.960Z,7.97
2018-03-27T15:27:52.800Z,7.83
2018-03-27T15:30:24.950Z,8.23
2018-03-27T15:32:57.292Z,7.67
2018-03-27T15:35:32.048Z,8.07
2018-03-27T15:38:02.488Z,8.13
2018-03-27T15:40:34.442Z,8.50
2018-03-27T15:43:05.609Z,8.27
2018-03-27T15:45:37.533Z,8.57
2018-03-27T15:48:21.832Z,8.77
2018-03-27T15:50:54.412Z,7.07
2018-03-27T15:53:34.604Z,9.10
2018-03-27T15:56:14.218Z,9.67
2018-03-27T15:58:44.702Z,9.27
2018-03-27T16:01:15.140Z,10.20
2018-03-27T16:03:46.366Z,9.50
2018-03-27T16:06:17.597Z,9.27
2018-03-27T16:08:59.932Z,9.17
2018-03-27T16:11:32.496Z,9.33
2018-03-27T16:14:08.272Z,9.53
2018-03-27T16:16:40.536Z,9.67
2018-03-27T16:19:14.698Z,10.23
2018-03-27T16:21:46.128Z,10.97
2018-03-27T16:24:19.835Z,9.83
2018-03-27T16:26:51.690Z,10.50
2018-03-27T16:29:22.365Z,10.27
2018-03-27T16:31:53.359Z,10.30
2018-03-27T16:34:24.072Z,10.33
2018-03-27T16:36:54.167Z,8.23
2018-03-27T16:39:33.275Z,7.27
2018-03-27T16:42:04.960Z,6.90
2018-03-27T16:44:35.852Z,7.77
2018-03-27T16:47:05.962Z,7.93
2018-03-27T16:49:56.853Z,6.67
2018-03-27T16:52:26.990Z,7.07
2018-03-27T16:55:22.822Z,7.67
2018-03-27T16:57:56.189Z,7.37
2018-03-27T17:03:22.606Z,7.80
2018-03-27T17:06:21.723Z,7.40
2018-03-27T17:09:11.799Z,7.90
2018-03-27T17:11:42.127Z,6.53
2018-03-27T17:17:21.327Z,8.00
2018-03-27T17:23:10.390Z,7.43
2018-03-27T17:25:41.532Z,7.50
2018-03-27T17:31:21.602Z,8.63
2018-03-27T17:33:56.323Z,10.63
2018-03-27T17:45:44.090Z,11.70
2018-03-27T17:48:14.215Z,11.30
2018-03-27T17:51:04.979Z,11.97
2018-03-27T17:53:52.185Z,10.83
2018-03-27T17:56:38.486Z,11.77
2018-03-27T17:59:09.436Z,11.40
2018-03-27T18:05:11.790Z,10.43
2018-03-27T18:11:09.638Z,11.13
2018-03-27T18:16:40.437Z,11.30
2018-03-27T18:22:17.750Z,11.07
2018-03-27T18:30:52.949Z,10.37
2018-03-27T18:33:26.048Z,11.77
2018-03-27T18:45:37.409Z,11.63
2018-03-27T18:54:17.856Z,11.47
2018-03-27T18:56:47.995Z,12.77
2018-03-27T19:02:46.531Z,13.33
2018-03-27T19:08:43.356Z,13.83
2018-03-27T19:17:29.569Z,13.97
2018-03-27T19:19:59.720Z,14.70
2018-03-27T19:22:29.843Z,16.60
2018-03-27T19:28:06.711Z,16.17
2018-03-27T19:30:36.938Z,15.93
2018-03-27T19:42:39.338Z,16.90
2018-03-27T19:48:15.923Z,14.37
2018-03-27T20:00:39.332Z,16.57
2018-03-27T20:03:47.847Z,14.20
2018-03-27T20:06:36.895Z,16.30
2018-03-27T20:24:31.519Z,16.40
2018-03-27T20:27:01.707Z,15.43
2018-03-27T20:29:32.066Z,16.53
2018-03-27T20:32:02.476Z,17.43
2018-03-27T20:40:45.841Z,16.53
2018-03-27T20:49:36.603Z,16.30
2018-03-27T20:52:22.085Z,17.47
2018-03-27T20:58:00.210Z,15.90
2018-03-27T21:00:57.410Z,16.10
2018-03-27T21:13:22.515Z,11.57
2018-03-27T21:24:56.956Z,9.40
2018-03-27T21:30:30.334Z,6.70
2018-03-27T21:36:20.410Z,8.33
2018-03-27T21:41:59.638Z,8.83
2018-03-27T21:47:36.298Z,6.70
2018-03-27T21:50:06.218Z,6.00
2018-03-27T22:11:42.575Z,4.93
2018-03-27T22:14:12.678Z,4.47
2018-03-27T22:26:12.591Z,4.20
2018-03-27T22:28:43.161Z,3.83
2018-03-27T22:31:15.421Z,4.17
2018-03-27T22:33:45.808Z,4.47
2018-03-27T22:36:16.045Z,3.40
2018-03-27T22:38:46.161Z,3.67
2018-03-27T22:44:29.696Z,4.43
2018-03-27T22:53:28.550Z,4.10
2018-03-27T22:56:19.430Z,4.27
2018-03-27T23:02:24.923Z,4.13
2018-03-27T23:04:55.645Z,4.37
2018-03-27T23:10:50.760Z,3.57
2018-03-27T23:13:24.805Z,3.43
2018-03-27T23:16:21.854Z,3.43
2018-03-27T23:19:08.510Z,3.90
2018-03-27T23:40:45.688Z,7.33
2018-03-27T23:46:30.405Z,6.50
2018-03-27T23:49:00.587Z,6.33
2018-03-27T23:51:31.317Z,6.93
2018-03-27T23:54:01.483Z,6.57
2018-03-27T23:56:31.610Z,7.47
